Muriae, Brazil
Current Conditions -  °F | °C
As of 9:00 PM on Sunday 21 Dec 2014 (Local Time) from SBCP Reporting Station
Clear Clear  
Wind Chill: 86°   Ceiling: Unl
Heat Index: 95°   Visibility: 6mi
Dew Point: 75°   Wind: 5mph
Humidity: 70%   Direction: 20°NNE
Pressure: 29.8"   Gusts: NA
Location:  21.13°S, 42.39°W
Report Text: SBCP 212300Z 02004KT CAVOK 30/24 Q1009
Loading
Personal Weather Stations






























Interactive Weather Map New forecast layout! Learn more

10-Day Weather Forecast

Advertisements
Track Severe Weather on mobile